RYR8334 LIME-LEIB
Flight info
| Callsign | RYR8334 |
|---|---|
| Flight time | 1h 12m |
| Altitude | 35000 |
| Route | VOG DCT VAMTU DCT KOLON DCT POS |
| Aircraft | B738/M-SDE2E3FGHIRWXY/LB1 |
Departure
| Time | 2026-05-05 12:12 |
|---|---|
| Airport | Il Caravaggio International Airport (LIME) |
Arrival
| Time | 2026-05-05 13:24 |
|---|---|
| Airport | Ibiza Airport (LEIB) |
| Time | Latitude | Longitude | Altitude | Speed | Heading |
|---|---|---|---|---|---|
| 2026-05-05 11:53 | 45.66684 | 9.69800 | 786 ft | 0 kts | 195° |
| 2026-05-05 12:02 | 45.66706 | 9.69808 | 786 ft | 4 kts | 194° |
| 2026-05-05 12:02 | 45.66732 | 9.69818 | 786 ft | 4 kts | 193° |
| 2026-05-05 12:02 | 45.66753 | 9.69824 | 786 ft | 4 kts | 175° |
| 2026-05-05 12:03 | 45.66775 | 9.69811 | 786 ft | 4 kts | 125° |
| 2026-05-05 12:03 | 45.66785 | 9.69781 | 786 ft | 1 kts | 105° |
| 2026-05-05 12:05 | 45.66783 | 9.69790 | 786 ft | 2 kts | 105° |
| 2026-05-05 12:05 | 45.66776 | 9.69827 | 786 ft | 5 kts | 106° |
| 2026-05-05 12:05 | 45.66762 | 9.69891 | 786 ft | 8 kts | 107° |
| 2026-05-05 12:06 | 45.66745 | 9.69979 | 786 ft | 10 kts | 103° |
| 2026-05-05 12:06 | 45.66726 | 9.70088 | 786 ft | 12 kts | 106° |
| 2026-05-05 12:06 | 45.66703 | 9.70211 | 786 ft | 14 kts | 104° |
| 2026-05-05 12:06 | 45.66678 | 9.70348 | 786 ft | 15 kts | 104° |
| 2026-05-05 12:07 | 45.66651 | 9.70498 | 786 ft | 16 kts | 102° |
| 2026-05-05 12:07 | 45.66624 | 9.70651 | 786 ft | 16 kts | 106° |
| 2026-05-05 12:07 | 45.66595 | 9.70793 | 786 ft | 15 kts | 109° |
| 2026-05-05 12:07 | 45.66566 | 9.70938 | 786 ft | 15 kts | 106° |
| 2026-05-05 12:08 | 45.66539 | 9.71086 | 786 ft | 16 kts | 111° |
| 2026-05-05 12:08 | 45.66506 | 9.71234 | 786 ft | 15 kts | 109° |
| 2026-05-05 12:08 | 45.66478 | 9.71369 | 786 ft | 13 kts | 106° |
| 2026-05-05 12:08 | 45.66453 | 9.71491 | 786 ft | 13 kts | 105° |
| 2026-05-05 12:09 | 45.66447 | 9.71612 | 786 ft | 12 kts | 79° |
| 2026-05-05 12:09 | 45.66464 | 9.71728 | 786 ft | 12 kts | 78° |
| 2026-05-05 12:09 | 45.66474 | 9.71844 | 786 ft | 12 kts | 90° |
| 2026-05-05 12:09 | 45.66456 | 9.71955 | 786 ft | 11 kts | 106° |
| 2026-05-05 12:10 | 45.66437 | 9.72064 | 786 ft | 11 kts | 104° |
| 2026-05-05 12:10 | 45.66421 | 9.72171 | 786 ft | 11 kts | 102° |
| 2026-05-05 12:10 | 45.66402 | 9.72284 | 786 ft | 12 kts | 102° |
| 2026-05-05 12:10 | 45.66381 | 9.72400 | 786 ft | 11 kts | 89° |
| 2026-05-05 12:11 | 45.66407 | 9.72497 | 786 ft | 11 kts | 18° |
| 2026-05-05 12:11 | 45.66474 | 9.72358 | 786 ft | 43 kts | 286° |
| 2026-05-05 12:11 | 45.66607 | 9.71619 | 786 ft | 111 kts | 285° |
| 2026-05-05 12:11 | 45.66852 | 9.70275 | 788 ft | 166 kts | 284° |
| 2026-05-05 12:12 | 45.67181 | 9.68535 | 1104 ft | 193 kts | 282° |
| 2026-05-05 12:12 | 45.67383 | 9.66536 | 1639 ft | 208 kts | 261° |
| 2026-05-05 12:12 | 45.66709 | 9.64782 | 2271 ft | 204 kts | 215° |
| 2026-05-05 12:12 | 45.65555 | 9.63683 | 3112 ft | 193 kts | 213° |
| 2026-05-05 12:13 | 45.64516 | 9.62507 | 3945 ft | 192 kts | 217° |
| 2026-05-05 12:13 | 45.63504 | 9.61233 | 4666 ft | 195 kts | 219° |
| 2026-05-05 12:13 | 45.62510 | 9.59902 | 5413 ft | 196 kts | 220° |
| 2026-05-05 12:13 | 45.61520 | 9.58563 | 6214 ft | 201 kts | 220° |
| 2026-05-05 12:14 | 45.60454 | 9.57108 | 6411 ft | 222 kts | 221° |
| 2026-05-05 12:14 | 45.59308 | 9.55509 | 6650 ft | 237 kts | 222° |
| 2026-05-05 12:14 | 45.58129 | 9.53842 | 7114 ft | 240 kts | 223° |
| 2026-05-05 12:14 | 45.56898 | 9.52221 | 7675 ft | 239 kts | 212° |
| 2026-05-05 12:15 | 45.55340 | 9.51526 | 8325 ft | 239 kts | 181° |
| 2026-05-05 12:15 | 45.53694 | 9.51943 | 9029 ft | 244 kts | 163° |
| 2026-05-05 12:15 | 45.52109 | 9.52847 | 9801 ft | 247 kts | 159° |
| 2026-05-05 12:15 | 45.50528 | 9.53840 | 10498 ft | 250 kts | 160° |
| 2026-05-05 12:16 | 45.48938 | 9.54841 | 11194 ft | 251 kts | 160° |
| 2026-05-05 12:16 | 45.47328 | 9.55843 | 11899 ft | 253 kts | 161° |
| 2026-05-05 12:16 | 45.45701 | 9.56845 | 12627 ft | 255 kts | 161° |
| 2026-05-05 12:16 | 45.44065 | 9.57842 | 13334 ft | 257 kts | 162° |
| 2026-05-05 12:17 | 45.42406 | 9.58845 | 14041 ft | 260 kts | 162° |
| 2026-05-05 12:17 | 45.40736 | 9.59851 | 14686 ft | 262 kts | 163° |
| 2026-05-05 12:17 | 45.39049 | 9.60864 | 15339 ft | 265 kts | 163° |
| 2026-05-05 12:17 | 45.36914 | 9.62084 | 16153 ft | 265 kts | 171° |
| 2026-05-05 12:18 | 45.33152 | 9.62210 | 16796 ft | 289 kts | 187° |
| 2026-05-05 12:18 | 45.28842 | 9.62015 | 17148 ft | 331 kts | 186° |
| 2026-05-05 12:18 | 45.23973 | 9.61845 | 17451 ft | 369 kts | 185° |
| 2026-05-05 12:18 | 45.18643 | 9.61684 | 18152 ft | 394 kts | 185° |
| 2026-05-05 12:19 | 45.13205 | 9.61187 | 19173 ft | 396 kts | 199° |
| 2026-05-05 12:19 | 45.08761 | 9.56838 | 20212 ft | 394 kts | 230° |
| 2026-05-05 12:19 | 45.06310 | 9.49898 | 21126 ft | 404 kts | 253° |
| 2026-05-05 12:19 | 45.04913 | 9.42123 | 22032 ft | 410 kts | 254° |
| 2026-05-05 12:20 | 45.03504 | 9.34251 | 22924 ft | 416 kts | 253° |
| 2026-05-05 12:20 | 45.02032 | 9.26287 | 23720 ft | 421 kts | 253° |
| 2026-05-05 12:20 | 45.00528 | 9.18284 | 24648 ft | 420 kts | 253° |
| 2026-05-05 12:20 | 44.99022 | 9.10299 | 25439 ft | 422 kts | 253° |
| 2026-05-05 12:21 | 44.97498 | 9.02254 | 26101 ft | 426 kts | 253° |
| 2026-05-05 12:21 | 44.95311 | 8.94802 | 26717 ft | 427 kts | 233° |
| 2026-05-05 12:21 | 44.91442 | 8.88414 | 27452 ft | 427 kts | 230° |
| 2026-05-05 12:21 | 44.87596 | 8.82062 | 28393 ft | 423 kts | 230° |
| 2026-05-05 12:22 | 44.83826 | 8.75786 | 29451 ft | 417 kts | 231° |
| 2026-05-05 12:22 | 44.80139 | 8.69642 | 30577 ft | 407 kts | 230° |
| 2026-05-05 12:22 | 44.76515 | 8.63607 | 31065 ft | 411 kts | 230° |
| 2026-05-05 12:22 | 44.72827 | 8.57482 | 31772 ft | 409 kts | 230° |
| 2026-05-05 12:23 | 44.69151 | 8.51392 | 32405 ft | 409 kts | 230° |
| 2026-05-05 12:23 | 44.65468 | 8.45303 | 32987 ft | 409 kts | 230° |
| 2026-05-05 12:23 | 44.61790 | 8.39235 | 33648 ft | 407 kts | 230° |
| 2026-05-05 12:23 | 44.58115 | 8.33182 | 34183 ft | 408 kts | 229° |
| 2026-05-05 12:24 | 44.54423 | 8.27118 | 34657 ft | 408 kts | 229° |
| 2026-05-05 12:24 | 44.50732 | 8.21067 | 35000 ft | 409 kts | 229° |
| 2026-05-05 12:24 | 44.43274 | 8.08883 | 34972 ft | 413 kts | 229° |
| 2026-05-05 12:25 | 44.35916 | 7.96911 | 34981 ft | 406 kts | 229° |
| 2026-05-05 12:25 | 44.28598 | 7.85052 | 34980 ft | 401 kts | 229° |
| 2026-05-05 12:26 | 44.21237 | 7.73174 | 34982 ft | 410 kts | 229° |
| 2026-05-05 12:26 | 44.13692 | 7.61048 | 34965 ft | 417 kts | 229° |
| 2026-05-05 12:27 | 44.06174 | 7.49030 | 34934 ft | 408 kts | 229° |
| 2026-05-05 12:27 | 43.98857 | 7.37377 | 34946 ft | 396 kts | 229° |
| 2026-05-05 12:28 | 43.91590 | 7.25833 | 34936 ft | 398 kts | 229° |
| 2026-05-05 12:28 | 43.84190 | 7.14152 | 34979 ft | 406 kts | 229° |
| 2026-05-05 12:29 | 43.77938 | 7.04308 | 34972 ft | 406 kts | 229° |
| 2026-05-05 12:29 | 43.70258 | 6.93063 | 34944 ft | 409 kts | 219° |
| 2026-05-05 12:30 | 43.61333 | 6.83467 | 34957 ft | 408 kts | 220° |
| 2026-05-05 12:30 | 43.52493 | 6.73877 | 34965 ft | 399 kts | 220° |
| 2026-05-05 12:31 | 43.43823 | 6.64498 | 34932 ft | 394 kts | 220° |
| 2026-05-05 12:31 | 43.35242 | 6.55252 | 34941 ft | 391 kts | 220° |
| 2026-05-05 12:32 | 43.26583 | 6.45956 | 34971 ft | 400 kts | 220° |
| 2026-05-05 12:32 | 43.17750 | 6.36510 | 34946 ft | 402 kts | 220° |
| 2026-05-05 12:33 | 43.08985 | 6.27178 | 34952 ft | 394 kts | 220° |
| 2026-05-05 12:33 | 43.00413 | 6.18080 | 34956 ft | 386 kts | 221° |
| 2026-05-05 12:34 | 42.91985 | 6.09162 | 34978 ft | 388 kts | 220° |
| 2026-05-05 12:34 | 42.83325 | 6.00033 | 34958 ft | 396 kts | 220° |
| 2026-05-05 12:35 | 42.74702 | 5.90982 | 34949 ft | 396 kts | 220° |
| 2026-05-05 12:35 | 42.65974 | 5.81851 | 34954 ft | 395 kts | 220° |
| 2026-05-05 12:36 | 42.57259 | 5.72767 | 34952 ft | 394 kts | 220° |
| 2026-05-05 12:36 | 42.48553 | 5.63724 | 34955 ft | 394 kts | 220° |
| 2026-05-05 12:37 | 42.39870 | 5.54739 | 34952 ft | 391 kts | 220° |
| 2026-05-05 12:37 | 42.31232 | 5.45831 | 34957 ft | 390 kts | 220° |
| 2026-05-05 12:38 | 42.22670 | 5.37033 | 34946 ft | 388 kts | 220° |
| 2026-05-05 12:38 | 42.14072 | 5.28228 | 34960 ft | 388 kts | 220° |
| 2026-05-05 12:39 | 42.05482 | 5.19463 | 34927 ft | 386 kts | 220° |
| 2026-05-05 12:39 | 41.96917 | 5.10753 | 34953 ft | 386 kts | 220° |
| 2026-05-05 12:40 | 41.88357 | 5.02078 | 34952 ft | 386 kts | 220° |
| 2026-05-05 12:40 | 41.79896 | 4.93533 | 34973 ft | 385 kts | 220° |
| 2026-05-05 12:41 | 41.71321 | 4.84903 | 34947 ft | 385 kts | 220° |
| 2026-05-05 12:41 | 41.62813 | 4.76369 | 34940 ft | 384 kts | 220° |
| 2026-05-05 12:42 | 41.54254 | 4.67812 | 34948 ft | 384 kts | 220° |
| 2026-05-05 12:42 | 41.45681 | 4.59271 | 34911 ft | 385 kts | 220° |
| 2026-05-05 12:43 | 41.37102 | 4.50752 | 34945 ft | 385 kts | 220° |
| 2026-05-05 12:43 | 41.28508 | 4.42247 | 34944 ft | 385 kts | 220° |
| 2026-05-05 12:44 | 41.19895 | 4.33753 | 34942 ft | 385 kts | 220° |
| 2026-05-05 12:44 | 41.14303 | 4.28253 | 34946 ft | 386 kts | 220° |
| 2026-05-05 12:45 | 41.09985 | 4.24014 | 34940 ft | 386 kts | 219° |
| 2026-05-05 12:45 | 41.05668 | 4.19783 | 34943 ft | 386 kts | 219° |
| 2026-05-05 12:46 | 41.01347 | 4.15556 | 34944 ft | 386 kts | 219° |
| 2026-05-05 12:46 | 40.97023 | 4.11333 | 34941 ft | 386 kts | 219° |
| 2026-05-05 12:47 | 40.92699 | 4.07116 | 34937 ft | 386 kts | 219° |
| 2026-05-05 12:47 | 40.88376 | 4.02908 | 34937 ft | 386 kts | 219° |
| 2026-05-05 12:48 | 40.84099 | 3.98750 | 34931 ft | 386 kts | 219° |
| 2026-05-05 12:48 | 40.79768 | 3.94549 | 34928 ft | 386 kts | 219° |
| 2026-05-05 12:49 | 40.75460 | 3.90375 | 34941 ft | 387 kts | 219° |
| 2026-05-05 12:49 | 40.71118 | 3.86176 | 34940 ft | 387 kts | 219° |
| 2026-05-05 12:50 | 40.66770 | 3.81978 | 34937 ft | 387 kts | 219° |
| 2026-05-05 12:50 | 40.62420 | 3.77785 | 34941 ft | 388 kts | 219° |
| 2026-05-05 12:51 | 40.58064 | 3.73593 | 34937 ft | 387 kts | 219° |
| 2026-05-05 12:51 | 40.53712 | 3.69412 | 34934 ft | 387 kts | 219° |
| 2026-05-05 12:52 | 40.49358 | 3.65236 | 34936 ft | 387 kts | 219° |
| 2026-05-05 12:52 | 40.45033 | 3.61095 | 34936 ft | 387 kts | 219° |
| 2026-05-05 12:53 | 40.40684 | 3.56937 | 34904 ft | 387 kts | 219° |
| 2026-05-05 12:53 | 40.36325 | 3.52775 | 34926 ft | 387 kts | 219° |
| 2026-05-05 12:54 | 40.29770 | 3.46532 | 34932 ft | 388 kts | 219° |
| 2026-05-05 12:55 | 40.25392 | 3.42370 | 34932 ft | 389 kts | 219° |
| 2026-05-05 12:55 | 40.21007 | 3.38208 | 34708 ft | 390 kts | 219° |
| 2026-05-05 12:55 | 40.18817 | 3.36132 | 34434 ft | 388 kts | 218° |
| 2026-05-05 12:56 | 40.16631 | 3.34062 | 34193 ft | 388 kts | 218° |
| 2026-05-05 12:56 | 40.14437 | 3.31985 | 33953 ft | 389 kts | 218° |
| 2026-05-05 12:56 | 40.12269 | 3.29935 | 33705 ft | 389 kts | 218° |
| 2026-05-05 12:56 | 40.10072 | 3.27859 | 33431 ft | 390 kts | 218° |
| 2026-05-05 12:57 | 40.07876 | 3.25786 | 33165 ft | 390 kts | 218° |
| 2026-05-05 12:57 | 40.05673 | 3.23709 | 32906 ft | 390 kts | 218° |
| 2026-05-05 12:57 | 40.03463 | 3.21626 | 32639 ft | 390 kts | 218° |
| 2026-05-05 12:57 | 40.01260 | 3.19550 | 32383 ft | 391 kts | 218° |
| 2026-05-05 12:58 | 39.99057 | 3.17476 | 32128 ft | 391 kts | 218° |
| 2026-05-05 12:58 | 39.96846 | 3.15395 | 31852 ft | 393 kts | 218° |
| 2026-05-05 12:58 | 39.94625 | 3.13309 | 31600 ft | 394 kts | 218° |
| 2026-05-05 12:58 | 39.92412 | 3.11252 | 31344 ft | 397 kts | 217° |
| 2026-05-05 12:59 | 39.90054 | 3.09355 | 31118 ft | 401 kts | 213° |
| 2026-05-05 12:59 | 39.87608 | 3.07576 | 30870 ft | 403 kts | 212° |
| 2026-05-05 12:59 | 39.85128 | 3.05829 | 30626 ft | 406 kts | 212° |
| 2026-05-05 13:00 | 39.80157 | 3.02313 | 30189 ft | 407 kts | 212° |
| 2026-05-05 13:00 | 39.77673 | 3.00532 | 29923 ft | 407 kts | 213° |
| 2026-05-05 13:01 | 39.70323 | 2.95207 | 29062 ft | 405 kts | 213° |
| 2026-05-05 13:01 | 39.67905 | 2.93452 | 28790 ft | 403 kts | 213° |
| 2026-05-05 13:01 | 39.65459 | 2.91679 | 28518 ft | 401 kts | 213° |
| 2026-05-05 13:01 | 39.63030 | 2.89919 | 28262 ft | 399 kts | 213° |
| 2026-05-05 13:02 | 39.60613 | 2.88169 | 27994 ft | 397 kts | 213° |
| 2026-05-05 13:02 | 39.58206 | 2.86428 | 27733 ft | 395 kts | 213° |
| 2026-05-05 13:02 | 39.55812 | 2.84697 | 27474 ft | 393 kts | 213° |
| 2026-05-05 13:02 | 39.53425 | 2.82973 | 27203 ft | 392 kts | 213° |
| 2026-05-05 13:03 | 39.51049 | 2.81257 | 26938 ft | 390 kts | 213° |
| 2026-05-05 13:03 | 39.48679 | 2.79548 | 26679 ft | 387 kts | 213° |
| 2026-05-05 13:03 | 39.46351 | 2.77873 | 26209 ft | 380 kts | 213° |
| 2026-05-05 13:03 | 39.44078 | 2.76146 | 25574 ft | 376 kts | 219° |
| 2026-05-05 13:04 | 39.42174 | 2.73862 | 24904 ft | 373 kts | 231° |
| 2026-05-05 13:04 | 39.40553 | 2.71312 | 24331 ft | 370 kts | 232° |
| 2026-05-05 13:04 | 39.38947 | 2.68722 | 23786 ft | 367 kts | 232° |
| 2026-05-05 13:04 | 39.37361 | 2.66154 | 23224 ft | 364 kts | 233° |
| 2026-05-05 13:05 | 39.35783 | 2.63609 | 22582 ft | 361 kts | 232° |
| 2026-05-05 13:05 | 39.34206 | 2.61082 | 21949 ft | 359 kts | 232° |
| 2026-05-05 13:05 | 39.32638 | 2.58581 | 21307 ft | 358 kts | 232° |
| 2026-05-05 13:05 | 39.31072 | 2.56091 | 20662 ft | 356 kts | 232° |
| 2026-05-05 13:06 | 39.29526 | 2.53642 | 20068 ft | 355 kts | 232° |
| 2026-05-05 13:06 | 39.27970 | 2.51180 | 19493 ft | 353 kts | 232° |
| 2026-05-05 13:06 | 39.26417 | 2.48725 | 18921 ft | 352 kts | 232° |
| 2026-05-05 13:06 | 39.24870 | 2.46284 | 18377 ft | 351 kts | 232° |
| 2026-05-05 13:07 | 39.23329 | 2.43853 | 17773 ft | 349 kts | 232° |
| 2026-05-05 13:07 | 39.21794 | 2.41434 | 17181 ft | 345 kts | 232° |
| 2026-05-05 13:07 | 39.20314 | 2.39106 | 16960 ft | 324 kts | 232° |
| 2026-05-05 13:07 | 39.18926 | 2.36926 | 16813 ft | 304 kts | 232° |
| 2026-05-05 13:08 | 39.17624 | 2.34880 | 16685 ft | 286 kts | 232° |
| 2026-05-05 13:08 | 39.16400 | 2.32959 | 16571 ft | 270 kts | 232° |
| 2026-05-05 13:08 | 39.15244 | 2.31143 | 16464 ft | 254 kts | 232° |
| 2026-05-05 13:08 | 39.14158 | 2.29439 | 16388 ft | 237 kts | 232° |
| 2026-05-05 13:09 | 39.13152 | 2.27861 | 16280 ft | 219 kts | 232° |
| 2026-05-05 13:09 | 39.12202 | 2.26362 | 15851 ft | 214 kts | 235° |
| 2026-05-05 13:09 | 39.11639 | 2.24637 | 15276 ft | 214 kts | 255° |
| 2026-05-05 13:09 | 39.11331 | 2.22767 | 14661 ft | 214 kts | 255° |
| 2026-05-05 13:10 | 39.11057 | 2.21137 | 14117 ft | 215 kts | 255° |
| 2026-05-05 13:10 | 39.10948 | 2.20499 | 13918 ft | 215 kts | 255° |
| 2026-05-05 13:10 | 39.10626 | 2.18618 | 13299 ft | 215 kts | 255° |
| 2026-05-05 13:10 | 39.10302 | 2.16747 | 12682 ft | 214 kts | 255° |
| 2026-05-05 13:11 | 39.09975 | 2.14872 | 12060 ft | 214 kts | 255° |
| 2026-05-05 13:11 | 39.09647 | 2.13004 | 11464 ft | 213 kts | 255° |
| 2026-05-05 13:11 | 39.09319 | 2.11144 | 10888 ft | 213 kts | 255° |
| 2026-05-05 13:11 | 39.08988 | 2.09277 | 10384 ft | 214 kts | 255° |
| 2026-05-05 13:12 | 39.08664 | 2.07453 | 10178 ft | 202 kts | 255° |
| 2026-05-05 13:12 | 39.08352 | 2.05700 | 9811 ft | 200 kts | 255° |
| 2026-05-05 13:12 | 39.08040 | 2.03955 | 9356 ft | 200 kts | 255° |
| 2026-05-05 13:12 | 39.07728 | 2.02215 | 8945 ft | 199 kts | 255° |
| 2026-05-05 13:13 | 39.07419 | 2.00490 | 8535 ft | 197 kts | 255° |
| 2026-05-05 13:13 | 39.07118 | 1.98813 | 8136 ft | 197 kts | 255° |
| 2026-05-05 13:13 | 39.06814 | 1.97125 | 7726 ft | 196 kts | 255° |
| 2026-05-05 13:13 | 39.06506 | 1.95415 | 7332 ft | 195 kts | 255° |
| 2026-05-05 13:14 | 39.06201 | 1.93721 | 6953 ft | 194 kts | 255° |
| 2026-05-05 13:14 | 39.05896 | 1.92030 | 6577 ft | 193 kts | 255° |
| 2026-05-05 13:14 | 39.05593 | 1.90351 | 6207 ft | 192 kts | 256° |
| 2026-05-05 13:14 | 39.05292 | 1.88686 | 5825 ft | 190 kts | 256° |
| 2026-05-05 13:15 | 39.04993 | 1.87032 | 5404 ft | 190 kts | 256° |
| 2026-05-05 13:15 | 39.04794 | 1.85933 | 5152 ft | 190 kts | 257° |
| 2026-05-05 13:15 | 39.04395 | 1.83729 | 4657 ft | 188 kts | 257° |
| 2026-05-05 13:15 | 39.04098 | 1.82086 | 4252 ft | 189 kts | 257° |
| 2026-05-05 13:16 | 39.03899 | 1.80991 | 3985 ft | 190 kts | 257° |
| 2026-05-05 13:16 | 39.03598 | 1.79333 | 3599 ft | 191 kts | 258° |
| 2026-05-05 13:16 | 39.03295 | 1.77670 | 3236 ft | 190 kts | 258° |
| 2026-05-05 13:16 | 39.02871 | 1.75470 | 3040 ft | 194 kts | 252° |
| 2026-05-05 13:17 | 39.02533 | 1.74375 | 3018 ft | 195 kts | 248° |
| 2026-05-05 13:17 | 39.01758 | 1.72323 | 3002 ft | 191 kts | 245° |
| 2026-05-05 13:17 | 39.01345 | 1.71297 | 2998 ft | 191 kts | 244° |
| 2026-05-05 13:17 | 39.00733 | 1.69803 | 2994 ft | 186 kts | 244° |
| 2026-05-05 13:18 | 39.00141 | 1.68372 | 2995 ft | 181 kts | 244° |
| 2026-05-05 13:18 | 38.99552 | 1.66951 | 2998 ft | 181 kts | 244° |
| 2026-05-05 13:18 | 38.98959 | 1.65522 | 3002 ft | 181 kts | 244° |
| 2026-05-05 13:18 | 38.98366 | 1.64093 | 3009 ft | 181 kts | 244° |
| 2026-05-05 13:19 | 38.97774 | 1.62666 | 3008 ft | 180 kts | 244° |
| 2026-05-05 13:19 | 38.97195 | 1.61272 | 2987 ft | 174 kts | 244° |
| 2026-05-05 13:19 | 38.96634 | 1.59920 | 2992 ft | 169 kts | 244° |
| 2026-05-05 13:19 | 38.96086 | 1.58597 | 2990 ft | 171 kts | 244° |
| 2026-05-05 13:20 | 38.95527 | 1.57246 | 2999 ft | 172 kts | 244° |
| 2026-05-05 13:20 | 38.94960 | 1.55877 | 2925 ft | 175 kts | 244° |
| 2026-05-05 13:20 | 38.94382 | 1.54481 | 2713 ft | 177 kts | 244° |
| 2026-05-05 13:20 | 38.93811 | 1.53102 | 2477 ft | 173 kts | 243° |
| 2026-05-05 13:21 | 38.93252 | 1.51757 | 2235 ft | 170 kts | 244° |
| 2026-05-05 13:21 | 38.92694 | 1.50405 | 2018 ft | 173 kts | 245° |
| 2026-05-05 13:21 | 38.92127 | 1.49032 | 1787 ft | 174 kts | 244° |
| 2026-05-05 13:21 | 38.91561 | 1.47662 | 1566 ft | 173 kts | 243° |
| 2026-05-05 13:22 | 38.90980 | 1.46313 | 1311 ft | 169 kts | 245° |
| 2026-05-05 13:22 | 38.90477 | 1.45047 | 1090 ft | 153 kts | 246° |
| 2026-05-05 13:22 | 38.90008 | 1.43905 | 928 ft | 144 kts | 245° |
| 2026-05-05 13:22 | 38.89554 | 1.42803 | 725 ft | 136 kts | 243° |
| 2026-05-05 13:23 | 38.89116 | 1.41749 | 477 ft | 132 kts | 242° |
| 2026-05-05 13:23 | 38.88676 | 1.40707 | 350 ft | 133 kts | 241° |
| 2026-05-05 13:23 | 38.88256 | 1.39672 | 181 ft | 130 kts | 241° |
| 2026-05-05 13:23 | 38.87836 | 1.38661 | 46 ft | 124 kts | 242° |
| 2026-05-05 13:24 | 38.87470 | 1.37769 | 31 ft | 95 kts | 242° |
| 2026-05-05 13:24 | 38.87269 | 1.37248 | 28 ft | 38 kts | 255° |
| 2026-05-05 13:24 | 38.87259 | 1.37004 | 32 ft | 15 kts | 270° |
| 2026-05-05 13:24 | 38.87275 | 1.36881 | 34 ft | 10 kts | 334° |
| 2026-05-05 13:25 | 38.87322 | 1.36942 | 37 ft | 11 kts | 61° |
| 2026-05-05 13:25 | 38.87361 | 1.37034 | 36 ft | 11 kts | 60° |
| 2026-05-05 13:25 | 38.87379 | 1.37074 | 37 ft | 5 kts | 57° |
| 2026-05-05 13:25 | 38.87422 | 1.37080 | 39 ft | 10 kts | 338° |
| 2026-05-05 13:26 | 38.87460 | 1.37052 | 42 ft | 6 kts | 331° |
| 2026-05-05 13:26 | 38.87474 | 1.37043 | 41 ft | 0 kts | 332° |